sensor_id;sensor_type;location;lat;lon;timestamp;temperature;humidity
34095;DHT22;20372;47.080;15.410;2023-07-22T00:01:48;18.50;99.90
34095;DHT22;20372;47.080;15.410;2023-07-22T00:04:13;17.90;99.90
34095;DHT22;20372;47.080;15.410;2023-07-22T00:06:39;18.00;99.90
34095;DHT22;20372;47.080;15.410;2023-07-22T00:09:05;18.40;99.90
34095;DHT22;20372;47.080;15.410;2023-07-22T00:11:31;18.80;99.90
34095;DHT22;20372;47.080;15.410;2023-07-22T00:13:57;18.70;99.90
34095;DHT22;20372;47.080;15.410;2023-07-22T00:16:22;19.10;99.90
34095;DHT22;20372;47.080;15.410;2023-07-22T00:18:48;19.30;99.90
34095;DHT22;20372;47.080;15.410;2023-07-22T00:21:14;19.10;99.90
34095;DHT22;20372;47.080;15.410;2023-07-22T00:23:40;18.90;99.90
34095;DHT22;20372;47.080;15.410;2023-07-22T00:26:06;19.30;99.90
34095;DHT22;20372;47.080;15.410;2023-07-22T00:28:31;19.30;99.90
34095;DHT22;20372;47.080;15.410;2023-07-22T00:30:57;19.20;99.90
34095;DHT22;20372;47.080;15.410;2023-07-22T00:33:22;19.10;99.90
34095;DHT22;20372;47.080;15.410;2023-07-22T00:35:49;18.30;99.90
34095;DHT22;20372;47.080;15.410;2023-07-22T00:38:18;18.90;99.90
34095;DHT22;20372;47.080;15.410;2023-07-22T00:40:44;19.10;99.90
34095;DHT22;20372;47.080;15.410;2023-07-22T00:43:10;19.40;99.90
34095;DHT22;20372;47.080;15.410;2023-07-22T00:45:36;18.90;99.90
34095;DHT22;20372;47.080;15.410;2023-07-22T00:48:02;19.20;99.90
34095;DHT22;20372;47.080;15.410;2023-07-22T00:50:30;19.00;99.90
34095;DHT22;20372;47.080;15.410;2023-07-22T00:52:56;18.90;99.90
34095;DHT22;20372;47.080;15.410;2023-07-22T00:55:22;19.10;99.90
34095;DHT22;20372;47.080;15.410;2023-07-22T00:57:48;19.00;99.90
34095;DHT22;20372;47.080;15.410;2023-07-22T01:00:14;18.50;99.90
34095;DHT22;20372;47.080;15.410;2023-07-22T01:02:41;17.80;99.90
34095;DHT22;20372;47.080;15.410;2023-07-22T01:05:08;17.50;99.90
34095;DHT22;20372;47.080;15.410;2023-07-22T01:07:35;17.30;99.90
34095;DHT22;20372;47.080;15.410;2023-07-22T01:10:01;17.10;99.90
34095;DHT22;20372;47.080;15.410;2023-07-22T01:12:27;17.00;99.90
34095;DHT22;20372;47.080;15.410;2023-07-22T01:14:52;16.90;99.90
34095;DHT22;20372;47.080;15.410;2023-07-22T01:17:18;16.90;99.90
34095;DHT22;20372;47.080;15.410;2023-07-22T01:19:44;16.90;99.90
34095;DHT22;20372;47.080;15.410;2023-07-22T01:22:11;17.10;99.90
34095;DHT22;20372;47.080;15.410;2023-07-22T01:24:38;16.90;99.90
34095;DHT22;20372;47.080;15.410;2023-07-22T01:27:06;16.70;99.90
34095;DHT22;20372;47.080;15.410;2023-07-22T01:29:35;16.60;99.90
34095;DHT22;20372;47.080;15.410;2023-07-22T01:32:01;16.60;99.90
34095;DHT22;20372;47.080;15.410;2023-07-22T01:34:27;16.90;99.90
34095;DHT22;20372;47.080;15.410;2023-07-22T01:36:52;16.90;99.90
34095;DHT22;20372;47.080;15.410;2023-07-22T01:39:19;17.70;99.90
34095;DHT22;20372;47.080;15.410;2023-07-22T01:41:45;17.50;99.90
34095;DHT22;20372;47.080;15.410;2023-07-22T01:44:11;18.20;99.90
34095;DHT22;20372;47.080;15.410;2023-07-22T01:46:36;18.10;99.90
34095;DHT22;20372;47.080;15.410;2023-07-22T01:49:06;17.50;99.90
34095;DHT22;20372;47.080;15.410;2023-07-22T01:51:33;17.80;99.90
34095;DHT22;20372;47.080;15.410;2023-07-22T01:53:59;18.10;99.90
34095;DHT22;20372;47.080;15.410;2023-07-22T01:56:25;18.60;99.90
34095;DHT22;20372;47.080;15.410;2023-07-22T01:58:50;18.50;99.90
34095;DHT22;20372;47.080;15.410;2023-07-22T02:01:16;18.50;99.90
34095;DHT22;20372;47.080;15.410;2023-07-22T02:03:42;18.30;99.90
34095;DHT22;20372;47.080;15.410;2023-07-22T02:06:08;18.80;99.90
34095;DHT22;20372;47.080;15.410;2023-07-22T02:08:33;18.60;99.90
34095;DHT22;20372;47.080;15.410;2023-07-22T02:11:06;18.50;99.90
34095;DHT22;20372;47.080;15.410;2023-07-22T02:13:32;18.40;99.90
34095;DHT22;20372;47.080;15.410;2023-07-22T02:15:58;18.80;99.90
34095;DHT22;20372;47.080;15.410;2023-07-22T02:18:24;18.00;99.90
34095;DHT22;20372;47.080;15.410;2023-07-22T02:20:49;18.60;99.90
34095;DHT22;20372;47.080;15.410;2023-07-22T02:23:15;18.90;99.90
34095;DHT22;20372;47.080;15.410;2023-07-22T02:25:41;17.90;99.90
34095;DHT22;20372;47.080;15.410;2023-07-22T02:28:06;17.30;99.90
34095;DHT22;20372;47.080;15.410;2023-07-22T02:30:35;16.90;99.90
34095;DHT22;20372;47.080;15.410;2023-07-22T02:33:01;16.70;99.90
34095;DHT22;20372;47.080;15.410;2023-07-22T02:35:27;16.60;99.90
34095;DHT22;20372;47.080;15.410;2023-07-22T02:37:53;16.80;99.90
34095;DHT22;20372;47.080;15.410;2023-07-22T02:40:19;17.30;99.90
34095;DHT22;20372;47.080;15.410;2023-07-22T02:42:44;17.40;99.90
34095;DHT22;20372;47.080;15.410;2023-07-22T02:45:10;17.00;99.90
34095;DHT22;20372;47.080;15.410;2023-07-22T02:47:36;16.80;99.90
34095;DHT22;20372;47.080;15.410;2023-07-22T02:50:02;16.80;99.90
34095;DHT22;20372;47.080;15.410;2023-07-22T02:52:28;16.70;99.90
34095;DHT22;20372;47.080;15.410;2023-07-22T02:55:07;16.90;99.90
34095;DHT22;20372;47.080;15.410;2023-07-22T02:57:34;17.90;99.90
34095;DHT22;20372;47.080;15.410;2023-07-22T03:00:00;18.00;99.90
34095;DHT22;20372;47.080;15.410;2023-07-22T03:02:25;18.20;99.90
34095;DHT22;20372;47.080;15.410;2023-07-22T03:04:51;18.60;99.90
34095;DHT22;20372;47.080;15.410;2023-07-22T03:07:16;18.40;99.90
34095;DHT22;20372;47.080;15.410;2023-07-22T03:09:42;18.20;99.90
34095;DHT22;20372;47.080;15.410;2023-07-22T03:12:07;18.20;99.90
34095;DHT22;20372;47.080;15.410;2023-07-22T03:14:33;18.00;99.90
34095;DHT22;20372;47.080;15.410;2023-07-22T03:17:02;17.60;99.90
34095;DHT22;20372;47.080;15.410;2023-07-22T03:19:27;17.10;99.90
34095;DHT22;20372;47.080;15.410;2023-07-22T03:21:53;17.10;99.90
34095;DHT22;20372;47.080;15.410;2023-07-22T03:24:18;17.30;99.90
34095;DHT22;20372;47.080;15.410;2023-07-22T03:26:44;16.90;99.90
34095;DHT22;20372;47.080;15.410;2023-07-22T03:29:09;16.70;99.90
34095;DHT22;20372;47.080;15.410;2023-07-22T03:31:36;16.50;99.90
34095;DHT22;20372;47.080;15.410;2023-07-22T03:34:01;16.40;99.90
34095;DHT22;20372;47.080;15.410;2023-07-22T03:36:27;16.30;99.90
34095;DHT22;20372;47.080;15.410;2023-07-22T03:38:52;16.20;99.90
34095;DHT22;20372;47.080;15.410;2023-07-22T03:41:18;16.40;99.90
34095;DHT22;20372;47.080;15.410;2023-07-22T03:43:43;16.40;99.90
34095;DHT22;20372;47.080;15.410;2023-07-22T03:46:09;16.80;99.90
34095;DHT22;20372;47.080;15.410;2023-07-22T03:48:35;16.70;99.90
34095;DHT22;20372;47.080;15.410;2023-07-22T03:51:00;17.10;99.90
34095;DHT22;20372;47.080;15.410;2023-07-22T03:53:26;17.00;99.90
34095;DHT22;20372;47.080;15.410;2023-07-22T03:55:51;16.90;99.90
34095;DHT22;20372;47.080;15.410;2023-07-22T03:58:17;16.70;99.90
34095;DHT22;20372;47.080;15.410;2023-07-22T04:00:43;17.00;99.90
34095;DHT22;20372;47.080;15.410;2023-07-22T04:03:08;16.70;99.90
34095;DHT22;20372;47.080;15.410;2023-07-22T04:05:34;16.50;99.90
34095;DHT22;20372;47.080;15.410;2023-07-22T04:07:59;16.60;99.90
34095;DHT22;20372;47.080;15.410;2023-07-22T04:10:25;16.40;99.90
34095;DHT22;20372;47.080;15.410;2023-07-22T04:12:50;16.60;99.90
34095;DHT22;20372;47.080;15.410;2023-07-22T04:15:16;17.60;99.90
34095;DHT22;20372;47.080;15.410;2023-07-22T04:17:42;17.10;99.90
34095;DHT22;20372;47.080;15.410;2023-07-22T04:20:08;17.50;99.90
34095;DHT22;20372;47.080;15.410;2023-07-22T04:22:34;17.00;99.90
34095;DHT22;20372;47.080;15.410;2023-07-22T04:24:59;16.70;99.90
34095;DHT22;20372;47.080;15.410;2023-07-22T04:27:26;16.50;99.90
34095;DHT22;20372;47.080;15.410;2023-07-22T04:29:52;16.40;99.90
34095;DHT22;20372;47.080;15.410;2023-07-22T04:32:18;16.30;99.90
34095;DHT22;20372;47.080;15.410;2023-07-22T04:34:44;16.30;99.90
34095;DHT22;20372;47.080;15.410;2023-07-22T04:37:10;16.30;99.90
34095;DHT22;20372;47.080;15.410;2023-07-22T04:39:36;16.40;99.90
34095;DHT22;20372;47.080;15.410;2023-07-22T04:42:02;16.80;99.90
34095;DHT22;20372;47.080;15.410;2023-07-22T04:44:27;18.30;99.90
34095;DHT22;20372;47.080;15.410;2023-07-22T04:46:53;19.00;99.90
34095;DHT22;20372;47.080;15.410;2023-07-22T04:49:19;18.70;99.90
34095;DHT22;20372;47.080;15.410;2023-07-22T04:51:45;18.80;99.90
34095;DHT22;20372;47.080;15.410;2023-07-22T04:54:11;18.90;99.90
34095;DHT22;20372;47.080;15.410;2023-07-22T04:56:36;18.90;99.90
34095;DHT22;20372;47.080;15.410;2023-07-22T04:59:03;18.80;99.90
34095;DHT22;20372;47.080;15.410;2023-07-22T05:01:29;18.70;99.90
34095;DHT22;20372;47.080;15.410;2023-07-22T05:03:54;19.10;99.90
34095;DHT22;20372;47.080;15.410;2023-07-22T05:06:20;19.30;99.90
34095;DHT22;20372;47.080;15.410;2023-07-22T05:08:46;19.20;99.90
34095;DHT22;20372;47.080;15.410;2023-07-22T05:11:12;18.80;99.90
34095;DHT22;20372;47.080;15.410;2023-07-22T05:13:37;18.70;99.90
34095;DHT22;20372;47.080;15.410;2023-07-22T05:16:03;18.50;99.90
34095;DHT22;20372;47.080;15.410;2023-07-22T05:18:28;18.40;99.90
34095;DHT22;20372;47.080;15.410;2023-07-22T05:20:54;18.40;99.90
34095;DHT22;20372;47.080;15.410;2023-07-22T05:23:19;18.80;99.90
34095;DHT22;20372;47.080;15.410;2023-07-22T05:25:54;18.20;99.90
34095;DHT22;20372;47.080;15.410;2023-07-22T05:28:20;17.70;99.90
34095;DHT22;20372;47.080;15.410;2023-07-22T05:30:45;17.60;99.90
34095;DHT22;20372;47.080;15.410;2023-07-22T05:33:11;17.60;99.90
34095;DHT22;20372;47.080;15.410;2023-07-22T05:35:37;17.70;99.90
34095;DHT22;20372;47.080;15.410;2023-07-22T05:38:02;17.90;99.90
34095;DHT22;20372;47.080;15.410;2023-07-22T05:40:29;18.00;99.90
34095;DHT22;20372;47.080;15.410;2023-07-22T05:42:55;18.20;99.90
34095;DHT22;20372;47.080;15.410;2023-07-22T05:45:21;18.30;99.90
34095;DHT22;20372;47.080;15.410;2023-07-22T05:47:47;18.20;99.90
34095;DHT22;20372;47.080;15.410;2023-07-22T05:50:12;18.70;99.90
34095;DHT22;20372;47.080;15.410;2023-07-22T05:52:38;18.50;99.90
34095;DHT22;20372;47.080;15.410;2023-07-22T05:55:04;18.40;99.90
34095;DHT22;20372;47.080;15.410;2023-07-22T05:57:30;18.40;99.90
34095;DHT22;20372;47.080;15.410;2023-07-22T05:59:56;18.30;99.90
34095;DHT22;20372;47.080;15.410;2023-07-22T06:02:21;18.40;99.90
34095;DHT22;20372;47.080;15.410;2023-07-22T06:04:47;18.40;99.90
34095;DHT22;20372;47.080;15.410;2023-07-22T06:07:13;18.30;99.90
34095;DHT22;20372;47.080;15.410;2023-07-22T06:09:39;19.00;99.90
34095;DHT22;20372;47.080;15.410;2023-07-22T06:12:04;19.20;99.90
34095;DHT22;20372;47.080;15.410;2023-07-22T06:14:30;18.70;99.90
34095;DHT22;20372;47.080;15.410;2023-07-22T06:16:55;18.60;99.90
34095;DHT22;20372;47.080;15.410;2023-07-22T06:19:21;18.60;99.90
34095;DHT22;20372;47.080;15.410;2023-07-22T06:21:49;18.60;99.90
34095;DHT22;20372;47.080;15.410;2023-07-22T06:24:14;18.50;99.90
34095;DHT22;20372;47.080;15.410;2023-07-22T06:26:40;18.80;99.90
34095;DHT22;20372;47.080;15.410;2023-07-22T06:29:05;18.60;99.90
34095;DHT22;20372;47.080;15.410;2023-07-22T06:31:31;18.50;99.90
34095;DHT22;20372;47.080;15.410;2023-07-22T06:33:57;18.40;99.90
34095;DHT22;20372;47.080;15.410;2023-07-22T06:36:23;18.50;99.90
34095;DHT22;20372;47.080;15.410;2023-07-22T06:38:49;18.50;99.90
34095;DHT22;20372;47.080;15.410;2023-07-22T06:41:14;18.60;99.90
34095;DHT22;20372;47.080;15.410;2023-07-22T06:43:40;18.70;99.90
34095;DHT22;20372;47.080;15.410;2023-07-22T06:46:05;18.80;99.90
34095;DHT22;20372;47.080;15.410;2023-07-22T06:48:31;19.30;99.90
34095;DHT22;20372;47.080;15.410;2023-07-22T06:50:56;19.40;99.90
34095;DHT22;20372;47.080;15.410;2023-07-22T06:53:22;19.60;99.90
34095;DHT22;20372;47.080;15.410;2023-07-22T06:55:48;19.80;99.90
34095;DHT22;20372;47.080;15.410;2023-07-22T06:58:14;19.40;99.90
34095;DHT22;20372;47.080;15.410;2023-07-22T07:00:40;19.30;99.90
34095;DHT22;20372;47.080;15.410;2023-07-22T07:03:05;19.20;99.90
34095;DHT22;20372;47.080;15.410;2023-07-22T07:05:31;19.20;99.90
34095;DHT22;20372;47.080;15.410;2023-07-22T07:07:56;19.30;99.90
34095;DHT22;20372;47.080;15.410;2023-07-22T07:10:22;19.50;99.90
34095;DHT22;20372;47.080;15.410;2023-07-22T07:12:47;19.60;99.90
34095;DHT22;20372;47.080;15.410;2023-07-22T07:15:13;19.70;99.90
34095;DHT22;20372;47.080;15.410;2023-07-22T07:17:39;19.50;99.90
34095;DHT22;20372;47.080;15.410;2023-07-22T07:20:04;19.50;99.90
34095;DHT22;20372;47.080;15.410;2023-07-22T07:22:30;19.60;99.90
34095;DHT22;20372;47.080;15.410;2023-07-22T07:24:56;19.70;99.90
34095;DHT22;20372;47.080;15.410;2023-07-22T07:27:22;19.90;99.90
34095;DHT22;20372;47.080;15.410;2023-07-22T07:29:47;20.30;99.90
34095;DHT22;20372;47.080;15.410;2023-07-22T07:32:13;21.20;99.90
34095;DHT22;20372;47.080;15.410;2023-07-22T07:34:38;21.10;99.90
34095;DHT22;20372;47.080;15.410;2023-07-22T07:37:04;21.40;99.90
34095;DHT22;20372;47.080;15.410;2023-07-22T07:39:30;21.30;99.90
34095;DHT22;20372;47.080;15.410;2023-07-22T07:41:55;22.10;99.90
34095;DHT22;20372;47.080;15.410;2023-07-22T07:44:21;24.20;99.90
34095;DHT22;20372;47.080;15.410;2023-07-22T07:46:46;24.70;99.90
34095;DHT22;20372;47.080;15.410;2023-07-22T07:49:12;25.80;99.90
34095;DHT22;20372;47.080;15.410;2023-07-22T07:51:37;24.80;99.90
34095;DHT22;20372;47.080;15.410;2023-07-22T07:54:03;25.70;99.90
34095;DHT22;20372;47.080;15.410;2023-07-22T07:56:29;26.40;99.90
34095;DHT22;20372;47.080;15.410;2023-07-22T07:58:55;26.70;99.90
34095;DHT22;20372;47.080;15.410;2023-07-22T08:01:20;26.10;99.90
34095;DHT22;20372;47.080;15.410;2023-07-22T08:03:46;26.20;99.90
34095;DHT22;20372;47.080;15.410;2023-07-22T08:06:12;26.20;99.90
34095;DHT22;20372;47.080;15.410;2023-07-22T08:08:38;25.90;99.90
34095;DHT22;20372;47.080;15.410;2023-07-22T08:11:08;25.60;99.90
34095;DHT22;20372;47.080;15.410;2023-07-22T08:13:34;25.30;99.90
34095;DHT22;20372;47.080;15.410;2023-07-22T08:16:01;25.90;99.90
34095;DHT22;20372;47.080;15.410;2023-07-22T08:18:28;25.70;99.90
34095;DHT22;20372;47.080;15.410;2023-07-22T08:20:54;25.00;99.90
34095;DHT22;20372;47.080;15.410;2023-07-22T08:23:20;24.20;99.90
34095;DHT22;20372;47.080;15.410;2023-07-22T08:25:46;24.30;99.90
34095;DHT22;20372;47.080;15.410;2023-07-22T08:28:12;24.90;99.90
34095;DHT22;20372;47.080;15.410;2023-07-22T08:30:37;25.50;99.90
34095;DHT22;20372;47.080;15.410;2023-07-22T08:33:06;26.30;99.90
34095;DHT22;20372;47.080;15.410;2023-07-22T08:35:35;27.50;97.00
34095;DHT22;20372;47.080;15.410;2023-07-22T08:38:02;27.00;95.20
34095;DHT22;20372;47.080;15.410;2023-07-22T08:40:32;25.50;97.20
34095;DHT22;20372;47.080;15.410;2023-07-22T08:42:57;25.90;99.80
34095;DHT22;20372;47.080;15.410;2023-07-22T08:45:23;27.50;94.50
34095;DHT22;20372;47.080;15.410;2023-07-22T08:47:50;28.80;93.80
34095;DHT22;20372;47.080;15.410;2023-07-22T08:50:19;28.70;92.80
34095;DHT22;20372;47.080;15.410;2023-07-22T08:52:46;29.60;95.30
34095;DHT22;20372;47.080;15.410;2023-07-22T08:55:12;29.90;92.10
34095;DHT22;20372;47.080;15.410;2023-07-22T08:57:38;30.10;90.90
34095;DHT22;20372;47.080;15.410;2023-07-22T09:00:03;28.20;90.40
34095;DHT22;20372;47.080;15.410;2023-07-22T09:02:32;26.60;92.40
34095;DHT22;20372;47.080;15.410;2023-07-22T09:04:58;26.90;96.00
34095;DHT22;20372;47.080;15.410;2023-07-22T09:07:24;26.30;95.80
34095;DHT22;20372;47.080;15.410;2023-07-22T09:09:50;25.40;93.10
34095;DHT22;20372;47.080;15.410;2023-07-22T09:12:17;25.00;96.00
34095;DHT22;20372;47.080;15.410;2023-07-22T09:14:43;24.90;97.70
34095;DHT22;20372;47.080;15.410;2023-07-22T09:17:09;24.90;96.20
34095;DHT22;20372;47.080;15.410;2023-07-22T09:19:34;24.70;94.70
34095;DHT22;20372;47.080;15.410;2023-07-22T09:22:00;25.70;97.10
34095;DHT22;20372;47.080;15.410;2023-07-22T09:24:26;25.40;92.60
34095;DHT22;20372;47.080;15.410;2023-07-22T09:26:53;24.90;92.50
34095;DHT22;20372;47.080;15.410;2023-07-22T09:29:38;24.70;97.40
34095;DHT22;20372;47.080;15.410;2023-07-22T09:32:05;24.70;94.10
34095;DHT22;20372;47.080;15.410;2023-07-22T09:34:31;24.30;94.40
34095;DHT22;20372;47.080;15.410;2023-07-22T09:36:58;23.90;94.10
34095;DHT22;20372;47.080;15.410;2023-07-22T09:39:25;23.40;94.30
34095;DHT22;20372;47.080;15.410;2023-07-22T09:41:51;23.50;93.10
34095;DHT22;20372;47.080;15.410;2023-07-22T09:44:21;23.20;94.30
34095;DHT22;20372;47.080;15.410;2023-07-22T09:46:50;23.50;95.30
34095;DHT22;20372;47.080;15.410;2023-07-22T09:49:16;23.50;96.70
34095;DHT22;20372;47.080;15.410;2023-07-22T09:51:42;23.20;95.80
34095;DHT22;20372;47.080;15.410;2023-07-22T09:54:08;23.40;99.00
34095;DHT22;20372;47.080;15.410;2023-07-22T09:56:43;23.70;99.00
34095;DHT22;20372;47.080;15.410;2023-07-22T09:59:10;23.70;99.30
34095;DHT22;20372;47.080;15.410;2023-07-22T10:01:37;23.90;99.90
34095;DHT22;20372;47.080;15.410;2023-07-22T10:04:03;24.30;99.20
34095;DHT22;20372;47.080;15.410;2023-07-22T10:06:29;24.50;97.30
34095;DHT22;20372;47.080;15.410;2023-07-22T10:08:56;24.90;96.40
34095;DHT22;20372;47.080;15.410;2023-07-22T10:11:25;25.10;95.90
34095;DHT22;20372;47.080;15.410;2023-07-22T10:13:52;24.80;96.90
34095;DHT22;20372;47.080;15.410;2023-07-22T10:16:18;24.70;96.00
34095;DHT22;20372;47.080;15.410;2023-07-22T10:18:44;25.30;96.60
34095;DHT22;20372;47.080;15.410;2023-07-22T10:21:10;25.00;93.60
34095;DHT22;20372;47.080;15.410;2023-07-22T10:23:37;24.90;95.30
34095;DHT22;20372;47.080;15.410;2023-07-22T10:26:03;24.80;95.90
34095;DHT22;20372;47.080;15.410;2023-07-22T10:28:30;25.00;97.50
34095;DHT22;20372;47.080;15.410;2023-07-22T10:30:56;24.80;93.00
34095;DHT22;20372;47.080;15.410;2023-07-22T10:33:23;24.80;94.80
34095;DHT22;20372;47.080;15.410;2023-07-22T10:36:02;24.90;94.90
34095;DHT22;20372;47.080;15.410;2023-07-22T10:38:28;25.00;92.30
34095;DHT22;20372;47.080;15.410;2023-07-22T10:40:54;24.80;95.80
34095;DHT22;20372;47.080;15.410;2023-07-22T10:43:33;25.20;94.30
34095;DHT22;20372;47.080;15.410;2023-07-22T10:46:14;25.00;92.30
34095;DHT22;20372;47.080;15.410;2023-07-22T10:48:40;25.30;93.60
34095;DHT22;20372;47.080;15.410;2023-07-22T10:51:11;25.20;92.60
34095;DHT22;20372;47.080;15.410;2023-07-22T10:53:43;25.50;95.50
34095;DHT22;20372;47.080;15.410;2023-07-22T11:04:12;25.70;94.70
34095;DHT22;20372;47.080;15.410;2023-07-22T11:11:53;24.90;90.40
34095;DHT22;20372;47.080;15.410;2023-07-22T11:14:23;25.10;93.20
34095;DHT22;20372;47.080;15.410;2023-07-22T11:16:49;25.30;96.40
34095;DHT22;20372;47.080;15.410;2023-07-22T11:19:16;25.20;93.50
34095;DHT22;20372;47.080;15.410;2023-07-22T11:21:42;25.20;91.30
34095;DHT22;20372;47.080;15.410;2023-07-22T11:24:08;24.90;91.80
34095;DHT22;20372;47.080;15.410;2023-07-22T11:26:34;24.80;92.60
34095;DHT22;20372;47.080;15.410;2023-07-22T11:29:00;24.70;92.80
34095;DHT22;20372;47.080;15.410;2023-07-22T11:31:33;24.90;94.70
34095;DHT22;20372;47.080;15.410;2023-07-22T11:33:59;25.00;93.70
34095;DHT22;20372;47.080;15.410;2023-07-22T11:36:25;24.70;91.50
34095;DHT22;20372;47.080;15.410;2023-07-22T11:38:52;24.70;96.30
34095;DHT22;20372;47.080;15.410;2023-07-22T11:41:17;24.90;95.20
34095;DHT22;20372;47.080;15.410;2023-07-22T11:43:43;24.90;94.80
34095;DHT22;20372;47.080;15.410;2023-07-22T11:46:09;25.00;95.30
34095;DHT22;20372;47.080;15.410;2023-07-22T11:48:35;25.00;93.00
34095;DHT22;20372;47.080;15.410;2023-07-22T11:51:01;24.90;92.80
34095;DHT22;20372;47.080;15.410;2023-07-22T11:53:27;24.60;93.30
34095;DHT22;20372;47.080;15.410;2023-07-22T11:55:55;24.70;95.60
34095;DHT22;20372;47.080;15.410;2023-07-22T11:58:27;24.80;95.70
34095;DHT22;20372;47.080;15.410;2023-07-22T12:01:06;24.90;95.30
34095;DHT22;20372;47.080;15.410;2023-07-22T12:03:32;24.90;96.40
34095;DHT22;20372;47.080;15.410;2023-07-22T12:06:02;24.80;92.80
34095;DHT22;20372;47.080;15.410;2023-07-22T12:08:28;24.70;94.80
34095;DHT22;20372;47.080;15.410;2023-07-22T12:10:57;24.70;93.00
34095;DHT22;20372;47.080;15.410;2023-07-22T12:13:23;25.00;95.70
34095;DHT22;20372;47.080;15.410;2023-07-22T12:16:02;25.20;95.20
34095;DHT22;20372;47.080;15.410;2023-07-22T12:18:28;25.30;93.60
34095;DHT22;20372;47.080;15.410;2023-07-22T12:20:53;25.50;93.80
34095;DHT22;20372;47.080;15.410;2023-07-22T12:23:19;24.90;92.60
34095;DHT22;20372;47.080;15.410;2023-07-22T12:25:47;24.80;94.80
34095;DHT22;20372;47.080;15.410;2023-07-22T12:28:12;24.70;93.80
34095;DHT22;20372;47.080;15.410;2023-07-22T12:30:38;24.50;94.90
34095;DHT22;20372;47.080;15.410;2023-07-22T12:33:03;24.60;95.90
34095;DHT22;20372;47.080;15.410;2023-07-22T12:35:29;24.70;94.50
34095;DHT22;20372;47.080;15.410;2023-07-22T12:37:55;24.70;96.80
34095;DHT22;20372;47.080;15.410;2023-07-22T12:40:20;24.90;96.50
34095;DHT22;20372;47.080;15.410;2023-07-22T12:42:46;25.10;93.40
34095;DHT22;20372;47.080;15.410;2023-07-22T12:45:12;25.40;95.60
34095;DHT22;20372;47.080;15.410;2023-07-22T12:47:38;25.40;95.20
34095;DHT22;20372;47.080;15.410;2023-07-22T12:50:03;25.30;94.60
34095;DHT22;20372;47.080;15.410;2023-07-22T12:52:29;25.20;95.80
34095;DHT22;20372;47.080;15.410;2023-07-22T12:54:55;25.10;95.20
34095;DHT22;20372;47.080;15.410;2023-07-22T12:57:20;25.00;96.40
34095;DHT22;20372;47.080;15.410;2023-07-22T12:59:46;24.70;93.50
34095;DHT22;20372;47.080;15.410;2023-07-22T13:02:12;24.90;94.90
34095;DHT22;20372;47.080;15.410;2023-07-22T13:04:38;25.00;97.10
34095;DHT22;20372;47.080;15.410;2023-07-22T13:07:03;24.90;94.80
34095;DHT22;20372;47.080;15.410;2023-07-22T13:09:29;24.90;94.40
34095;DHT22;20372;47.080;15.410;2023-07-22T13:11:54;24.70;93.10
34095;DHT22;20372;47.080;15.410;2023-07-22T13:14:20;24.50;95.90
34095;DHT22;20372;47.080;15.410;2023-07-22T13:16:46;24.40;94.10
34095;DHT22;20372;47.080;15.410;2023-07-22T13:19:12;24.20;94.30
34095;DHT22;20372;47.080;15.410;2023-07-22T13:21:37;24.20;95.10
34095;DHT22;20372;47.080;15.410;2023-07-22T13:24:03;24.30;95.00
34095;DHT22;20372;47.080;15.410;2023-07-22T13:26:29;24.20;94.70
34095;DHT22;20372;47.080;15.410;2023-07-22T13:28:54;23.80;95.30
34095;DHT22;20372;47.080;15.410;2023-07-22T13:31:20;23.50;97.90
34095;DHT22;20372;47.080;15.410;2023-07-22T13:33:46;23.50;96.50
34095;DHT22;20372;47.080;15.410;2023-07-22T13:36:11;23.40;97.00
34095;DHT22;20372;47.080;15.410;2023-07-22T13:38:37;23.40;98.00
34095;DHT22;20372;47.080;15.410;2023-07-22T13:41:02;23.40;97.80
34095;DHT22;20372;47.080;15.410;2023-07-22T13:43:29;23.50;97.60
34095;DHT22;20372;47.080;15.410;2023-07-22T13:45:54;23.60;98.20
34095;DHT22;20372;47.080;15.410;2023-07-22T13:48:20;23.80;99.40
34095;DHT22;20372;47.080;15.410;2023-07-22T13:50:45;23.80;99.90
34095;DHT22;20372;47.080;15.410;2023-07-22T13:53:11;23.60;99.90
34095;DHT22;20372;47.080;15.410;2023-07-22T13:55:36;23.50;99.90
34095;DHT22;20372;47.080;15.410;2023-07-22T13:58:02;23.50;99.90
34095;DHT22;20372;47.080;15.410;2023-07-22T14:00:28;23.40;99.90
34095;DHT22;20372;47.080;15.410;2023-07-22T14:02:54;23.40;99.90
34095;DHT22;20372;47.080;15.410;2023-07-22T14:05:19;23.40;99.90
34095;DHT22;20372;47.080;15.410;2023-07-22T14:07:45;23.30;99.90
34095;DHT22;20372;47.080;15.410;2023-07-22T14:10:10;23.30;99.90
34095;DHT22;20372;47.080;15.410;2023-07-22T14:12:36;23.30;99.90
34095;DHT22;20372;47.080;15.410;2023-07-22T14:15:02;23.10;99.90
34095;DHT22;20372;47.080;15.410;2023-07-22T14:17:29;23.20;99.90
34095;DHT22;20372;47.080;15.410;2023-07-22T14:19:58;23.10;99.90
34095;DHT22;20372;47.080;15.410;2023-07-22T14:22:23;23.00;99.90
34095;DHT22;20372;47.080;15.410;2023-07-22T14:24:49;23.00;99.90
34095;DHT22;20372;47.080;15.410;2023-07-22T14:27:14;22.90;99.90
34095;DHT22;20372;47.080;15.410;2023-07-22T14:29:40;22.90;99.90
34095;DHT22;20372;47.080;15.410;2023-07-22T14:32:06;22.80;99.90
34095;DHT22;20372;47.080;15.410;2023-07-22T14:34:32;22.80;99.90
34095;DHT22;20372;47.080;15.410;2023-07-22T14:36:57;22.70;99.90
34095;DHT22;20372;47.080;15.410;2023-07-22T14:39:23;22.60;99.90
34095;DHT22;20372;47.080;15.410;2023-07-22T14:41:48;22.50;99.90
34095;DHT22;20372;47.080;15.410;2023-07-22T14:44:14;22.50;99.90
34095;DHT22;20372;47.080;15.410;2023-07-22T14:46:40;22.40;99.90
34095;DHT22;20372;47.080;15.410;2023-07-22T14:49:05;22.30;99.90
34095;DHT22;20372;47.080;15.410;2023-07-22T14:51:35;22.20;99.90
34095;DHT22;20372;47.080;15.410;2023-07-22T14:54:00;21.80;99.90
34095;DHT22;20372;47.080;15.410;2023-07-22T14:56:26;21.50;99.90
34095;DHT22;20372;47.080;15.410;2023-07-22T14:58:51;21.40;99.90
34095;DHT22;20372;47.080;15.410;2023-07-22T15:01:17;21.20;99.90
34095;DHT22;20372;47.080;15.410;2023-07-22T15:03:42;20.80;99.90
34095;DHT22;20372;47.080;15.410;2023-07-22T15:06:08;20.60;99.90
34095;DHT22;20372;47.080;15.410;2023-07-22T15:08:33;20.80;99.90
34095;DHT22;20372;47.080;15.410;2023-07-22T15:10:59;20.70;99.90
34095;DHT22;20372;47.080;15.410;2023-07-22T15:13:25;20.20;99.90
34095;DHT22;20372;47.080;15.410;2023-07-22T15:15:52;19.70;99.90
34095;DHT22;20372;47.080;15.410;2023-07-22T15:18:18;19.50;99.90
34095;DHT22;20372;47.080;15.410;2023-07-22T15:20:43;19.30;99.90
34095;DHT22;20372;47.080;15.410;2023-07-22T15:23:09;19.00;99.90